sensor_id;sensor_type;location;lat;lon;timestamp;P1;durP1;ratioP1;P2;durP2;ratioP2
36303;SDS011;22335;49.800;8.596;2022-12-18T00:02:03;41.40;;;27.87;;
36303;SDS011;22335;49.800;8.596;2022-12-18T00:08:48;44.63;;;29.33;;
36303;SDS011;22335;49.800;8.596;2022-12-18T00:15:34;53.28;;;31.77;;
36303;SDS011;22335;49.800;8.596;2022-12-18T00:22:22;51.30;;;31.70;;
36303;SDS011;22335;49.800;8.596;2022-12-18T00:29:09;43.63;;;29.33;;
36303;SDS011;22335;49.800;8.596;2022-12-18T00:36:00;47.70;;;30.63;;
36303;SDS011;22335;49.800;8.596;2022-12-18T00:42:48;42.30;;;28.33;;
36303;SDS011;22335;49.800;8.596;2022-12-18T00:49:40;43.13;;;29.17;;
36303;SDS011;22335;49.800;8.596;2022-12-18T00:56:25;43.60;;;28.57;;
36303;SDS011;22335;49.800;8.596;2022-12-18T01:03:14;47.17;;;29.37;;
36303;SDS011;22335;49.800;8.596;2022-12-18T01:10:00;45.80;;;30.17;;
36303;SDS011;22335;49.800;8.596;2022-12-18T01:16:45;47.38;;;31.95;;
36303;SDS011;22335;49.800;8.596;2022-12-18T01:23:34;50.13;;;31.92;;
36303;SDS011;22335;49.800;8.596;2022-12-18T01:30:20;53.37;;;32.07;;
36303;SDS011;22335;49.800;8.596;2022-12-18T01:37:07;46.63;;;31.13;;
36303;SDS011;22335;49.800;8.596;2022-12-18T01:43:56;46.60;;;30.50;;
36303;SDS011;22335;49.800;8.596;2022-12-18T01:50:42;44.10;;;28.80;;
36303;SDS011;22335;49.800;8.596;2022-12-18T01:57:29;56.23;;;32.63;;
36303;SDS011;22335;49.800;8.596;2022-12-18T02:11:10;47.93;;;29.30;;
36303;SDS011;22335;49.800;8.596;2022-12-18T02:18:05;45.60;;;29.80;;
36303;SDS011;22335;49.800;8.596;2022-12-18T02:25:01;51.20;;;30.33;;
36303;SDS011;22335;49.800;8.596;2022-12-18T02:32:06;46.43;;;29.13;;
36303;SDS011;22335;49.800;8.596;2022-12-18T02:38:57;44.77;;;29.13;;
36303;SDS011;22335;49.800;8.596;2022-12-18T02:45:50;47.23;;;29.63;;
36303;SDS011;22335;49.800;8.596;2022-12-18T02:52:50;44.87;;;28.47;;
36303;SDS011;22335;49.800;8.596;2022-12-18T02:59:50;48.80;;;29.20;;
36303;SDS011;22335;49.800;8.596;2022-12-18T03:06:46;40.80;;;26.77;;
36303;SDS011;22335;49.800;8.596;2022-12-18T03:13:39;40.57;;;25.27;;
36303;SDS011;22335;49.800;8.596;2022-12-18T03:20:29;41.77;;;27.20;;
36303;SDS011;22335;49.800;8.596;2022-12-18T03:27:18;42.87;;;27.23;;
36303;SDS011;22335;49.800;8.596;2022-12-18T03:34:12;44.30;;;27.47;;
36303;SDS011;22335;49.800;8.596;2022-12-18T03:41:06;43.70;;;27.60;;
36303;SDS011;22335;49.800;8.596;2022-12-18T04:01:51;41.00;;;26.50;;
36303;SDS011;22335;49.800;8.596;2022-12-18T04:08:40;44.87;;;27.57;;
36303;SDS011;22335;49.800;8.596;2022-12-18T04:15:31;41.63;;;26.67;;
36303;SDS011;22335;49.800;8.596;2022-12-18T04:22:25;39.90;;;26.07;;
36303;SDS011;22335;49.800;8.596;2022-12-18T04:29:13;44.63;;;26.30;;
36303;SDS011;22335;49.800;8.596;2022-12-18T04:35:59;51.67;;;27.90;;
36303;SDS011;22335;49.800;8.596;2022-12-18T04:42:48;57.30;;;30.47;;
36303;SDS011;22335;49.800;8.596;2022-12-18T04:49:33;61.53;;;31.23;;
36303;SDS011;22335;49.800;8.596;2022-12-18T04:56:19;55.23;;;28.93;;
36303;SDS011;22335;49.800;8.596;2022-12-18T05:03:07;58.45;;;31.30;;
36303;SDS011;22335;49.800;8.596;2022-12-18T05:09:53;46.60;;;27.67;;
36303;SDS011;22335;49.800;8.596;2022-12-18T05:16:38;52.97;;;30.13;;
36303;SDS011;22335;49.800;8.596;2022-12-18T05:23:27;52.97;;;29.50;;
36303;SDS011;22335;49.800;8.596;2022-12-18T05:30:12;54.13;;;29.23;;
36303;SDS011;22335;49.800;8.596;2022-12-18T05:36:59;49.47;;;30.65;;
36303;SDS011;22335;49.800;8.596;2022-12-18T05:43:47;52.47;;;29.27;;
36303;SDS011;22335;49.800;8.596;2022-12-18T05:50:33;50.97;;;29.33;;
36303;SDS011;22335;49.800;8.596;2022-12-18T05:57:19;49.30;;;29.10;;
36303;SDS011;22335;49.800;8.596;2022-12-18T06:04:07;49.13;;;28.33;;
36303;SDS011;22335;49.800;8.596;2022-12-18T06:10:53;51.87;;;29.30;;
36303;SDS011;22335;49.800;8.596;2022-12-18T06:17:39;52.87;;;31.13;;
36303;SDS011;22335;49.800;8.596;2022-12-18T06:24:27;50.45;;;28.70;;
36303;SDS011;22335;49.800;8.596;2022-12-18T06:31:14;54.83;;;30.13;;
36303;SDS011;22335;49.800;8.596;2022-12-18T06:38:00;54.80;;;29.70;;
36303;SDS011;22335;49.800;8.596;2022-12-18T06:44:49;65.63;;;29.47;;
36303;SDS011;22335;49.800;8.596;2022-12-18T06:51:35;58.47;;;30.60;;
36303;SDS011;22335;49.800;8.596;2022-12-18T06:58:20;54.13;;;29.67;;
36303;SDS011;22335;49.800;8.596;2022-12-18T07:05:09;58.22;;;30.77;;
36303;SDS011;22335;49.800;8.596;2022-12-18T07:11:54;62.20;;;30.60;;
36303;SDS011;22335;49.800;8.596;2022-12-18T07:18:40;53.75;;;28.92;;
36303;SDS011;22335;49.800;8.596;2022-12-18T07:25:28;63.53;;;29.30;;
36303;SDS011;22335;49.800;8.596;2022-12-18T07:32:13;66.13;;;30.20;;
36303;SDS011;22335;49.800;8.596;2022-12-18T07:38:59;58.78;;;28.02;;
36303;SDS011;22335;49.800;8.596;2022-12-18T07:45:48;55.33;;;28.80;;
36303;SDS011;22335;49.800;8.596;2022-12-18T07:52:34;63.60;;;31.53;;
36303;SDS011;22335;49.800;8.596;2022-12-18T07:59:20;64.67;;;31.53;;
36303;SDS011;22335;49.800;8.596;2022-12-18T08:06:08;69.55;;;32.22;;
36303;SDS011;22335;49.800;8.596;2022-12-18T08:12:54;58.07;;;30.87;;
36303;SDS011;22335;49.800;8.596;2022-12-18T08:19:45;57.80;;;29.90;;
36303;SDS011;22335;49.800;8.596;2022-12-18T08:26:33;134.10;;;32.90;;
36303;SDS011;22335;49.800;8.596;2022-12-18T08:33:18;61.07;;;31.07;;
36303;SDS011;22335;49.800;8.596;2022-12-18T08:40:04;80.57;;;32.03;;
36303;SDS011;22335;49.800;8.596;2022-12-18T08:46:55;63.27;;;32.53;;
36303;SDS011;22335;49.800;8.596;2022-12-18T08:53:41;88.97;;;32.23;;
36303;SDS011;22335;49.800;8.596;2022-12-18T09:00:27;109.30;;;29.23;;
36303;SDS011;22335;49.800;8.596;2022-12-18T09:07:16;46.57;;;28.37;;
36303;SDS011;22335;49.800;8.596;2022-12-18T09:14:01;55.63;;;29.93;;
36303;SDS011;22335;49.800;8.596;2022-12-18T09:20:47;58.07;;;32.10;;
36303;SDS011;22335;49.800;8.596;2022-12-18T09:27:36;59.77;;;34.60;;
36303;SDS011;22335;49.800;8.596;2022-12-18T09:34:22;67.07;;;37.67;;
36303;SDS011;22335;49.800;8.596;2022-12-18T09:41:14;61.70;;;35.77;;
36303;SDS011;22335;49.800;8.596;2022-12-18T09:48:18;58.73;;;35.00;;
36303;SDS011;22335;49.800;8.596;2022-12-18T09:55:10;61.97;;;36.03;;
36303;SDS011;22335;49.800;8.596;2022-12-18T10:02:14;58.57;;;35.10;;
36303;SDS011;22335;49.800;8.596;2022-12-18T10:09:06;62.33;;;35.90;;
36303;SDS011;22335;49.800;8.596;2022-12-18T10:16:03;67.83;;;39.30;;
36303;SDS011;22335;49.800;8.596;2022-12-18T10:23:00;61.57;;;35.50;;
36303;SDS011;22335;49.800;8.596;2022-12-18T10:29:57;55.63;;;32.70;;
36303;SDS011;22335;49.800;8.596;2022-12-18T10:36:43;56.50;;;33.03;;
36303;SDS011;22335;49.800;8.596;2022-12-18T10:43:29;54.93;;;34.93;;
36303;SDS011;22335;49.800;8.596;2022-12-18T10:50:24;56.60;;;31.93;;
36303;SDS011;22335;49.800;8.596;2022-12-18T10:57:35;54.30;;;31.53;;
36303;SDS011;22335;49.800;8.596;2022-12-18T11:04:23;53.43;;;31.27;;
36303;SDS011;22335;49.800;8.596;2022-12-18T11:11:21;54.77;;;33.60;;
36303;SDS011;22335;49.800;8.596;2022-12-18T11:18:14;54.80;;;34.80;;
36303;SDS011;22335;49.800;8.596;2022-12-18T11:25:04;56.47;;;34.40;;
36303;SDS011;22335;49.800;8.596;2022-12-18T11:32:32;55.13;;;34.13;;
36303;SDS011;22335;49.800;8.596;2022-12-18T11:39:23;56.43;;;35.70;;
36303;SDS011;22335;49.800;8.596;2022-12-18T11:46:18;50.55;;;33.20;;
36303;SDS011;22335;49.800;8.596;2022-12-18T11:53:16;52.53;;;34.15;;
36303;SDS011;22335;49.800;8.596;2022-12-18T12:00:04;52.97;;;35.97;;
36303;SDS011;22335;49.800;8.596;2022-12-18T12:06:59;56.15;;;32.35;;
36303;SDS011;22335;49.800;8.596;2022-12-18T12:14:05;51.63;;;34.47;;
36303;SDS011;22335;49.800;8.596;2022-12-18T12:21:12;53.47;;;34.22;;
36303;SDS011;22335;49.800;8.596;2022-12-18T12:28:09;56.42;;;34.13;;
36303;SDS011;22335;49.800;8.596;2022-12-18T12:35:12;59.50;;;35.05;;
36303;SDS011;22335;49.800;8.596;2022-12-18T12:42:11;55.45;;;35.45;;
36303;SDS011;22335;49.800;8.596;2022-12-18T12:49:17;52.60;;;34.03;;
36303;SDS011;22335;49.800;8.596;2022-12-18T12:56:14;52.63;;;34.45;;
36303;SDS011;22335;49.800;8.596;2022-12-18T13:03:04;55.22;;;34.60;;
36303;SDS011;22335;49.800;8.596;2022-12-18T13:10:13;57.08;;;34.58;;
36303;SDS011;22335;49.800;8.596;2022-12-18T13:17:21;51.38;;;32.90;;
36303;SDS011;22335;49.800;8.596;2022-12-18T13:24:14;61.75;;;38.75;;
36303;SDS011;22335;49.800;8.596;2022-12-18T13:31:07;58.75;;;37.20;;
36303;SDS011;22335;49.800;8.596;2022-12-18T13:37:56;57.38;;;37.00;;
36303;SDS011;22335;49.800;8.596;2022-12-18T13:44:43;57.20;;;35.75;;
36303;SDS011;22335;49.800;8.596;2022-12-18T13:51:29;63.22;;;38.95;;
36303;SDS011;22335;49.800;8.596;2022-12-18T13:58:20;62.42;;;38.20;;
36303;SDS011;22335;49.800;8.596;2022-12-18T14:05:20;63.05;;;38.42;;
36303;SDS011;22335;49.800;8.596;2022-12-18T14:12:11;58.85;;;37.72;;
36303;SDS011;22335;49.800;8.596;2022-12-18T14:19:17;60.40;;;37.63;;
36303;SDS011;22335;49.800;8.596;2022-12-18T14:26:17;59.17;;;36.53;;
36303;SDS011;22335;49.800;8.596;2022-12-18T14:33:12;64.18;;;35.45;;
36303;SDS011;22335;49.800;8.596;2022-12-18T14:40:05;57.55;;;35.30;;
36303;SDS011;22335;49.800;8.596;2022-12-18T14:46:56;57.30;;;37.00;;
36303;SDS011;22335;49.800;8.596;2022-12-18T14:53:44;57.38;;;36.55;;
36303;SDS011;22335;49.800;8.596;2022-12-18T15:00:38;58.55;;;35.63;;
36303;SDS011;22335;49.800;8.596;2022-12-18T15:07:34;56.85;;;34.72;;
36303;SDS011;22335;49.800;8.596;2022-12-18T15:14:37;56.13;;;35.55;;
36303;SDS011;22335;49.800;8.596;2022-12-18T15:21:27;61.97;;;37.53;;
36303;SDS011;22335;49.800;8.596;2022-12-18T15:28:17;54.05;;;34.88;;
36303;SDS011;22335;49.800;8.596;2022-12-18T15:35:08;59.30;;;36.03;;
36303;SDS011;22335;49.800;8.596;2022-12-18T15:42:07;59.70;;;37.28;;
36303;SDS011;22335;49.800;8.596;2022-12-18T15:49:05;59.00;;;36.65;;
36303;SDS011;22335;49.800;8.596;2022-12-18T15:55:52;59.55;;;35.70;;
36303;SDS011;22335;49.800;8.596;2022-12-18T16:02:53;60.92;;;38.30;;
36303;SDS011;22335;49.800;8.596;2022-12-18T16:09:39;56.78;;;35.47;;
36303;SDS011;22335;49.800;8.596;2022-12-18T16:16:25;56.37;;;34.63;;
36303;SDS011;22335;49.800;8.596;2022-12-18T16:23:14;59.28;;;35.33;;
36303;SDS011;22335;49.800;8.596;2022-12-18T16:29:59;50.25;;;33.42;;
36303;SDS011;22335;49.800;8.596;2022-12-18T16:36:45;68.78;;;42.10;;
36303;SDS011;22335;49.800;8.596;2022-12-18T16:43:33;69.00;;;39.63;;
36303;SDS011;22335;49.800;8.596;2022-12-18T16:50:20;62.17;;;39.85;;
36303;SDS011;22335;49.800;8.596;2022-12-18T16:57:06;62.07;;;40.23;;
36303;SDS011;22335;49.800;8.596;2022-12-18T17:03:56;66.63;;;41.72;;
36303;SDS011;22335;49.800;8.596;2022-12-18T17:10:43;83.35;;;51.17;;
36303;SDS011;22335;49.800;8.596;2022-12-18T17:17:29;85.32;;;50.17;;
36303;SDS011;22335;49.800;8.596;2022-12-18T17:24:17;73.55;;;46.38;;
36303;SDS011;22335;49.800;8.596;2022-12-18T17:31:09;80.70;;;46.67;;
36303;SDS011;22335;49.800;8.596;2022-12-18T17:37:56;65.43;;;41.95;;
36303;SDS011;22335;49.800;8.596;2022-12-18T17:44:48;65.68;;;41.33;;
36303;SDS011;22335;49.800;8.596;2022-12-18T17:51:34;68.93;;;40.72;;
36303;SDS011;22335;49.800;8.596;2022-12-18T17:58:19;75.20;;;45.38;;
36303;SDS011;22335;49.800;8.596;2022-12-18T18:05:08;62.20;;;41.20;;
36303;SDS011;22335;49.800;8.596;2022-12-18T18:11:58;74.85;;;43.30;;
36303;SDS011;22335;49.800;8.596;2022-12-18T18:18:57;78.18;;;45.35;;
36303;SDS011;22335;49.800;8.596;2022-12-18T18:25:45;68.68;;;42.00;;
36303;SDS011;22335;49.800;8.596;2022-12-18T18:32:35;68.82;;;40.88;;
36303;SDS011;22335;49.800;8.596;2022-12-18T18:39:21;67.07;;;41.03;;
36303;SDS011;22335;49.800;8.596;2022-12-18T18:46:10;66.60;;;40.27;;
36303;SDS011;22335;49.800;8.596;2022-12-18T18:52:58;66.88;;;41.17;;
36303;SDS011;22335;49.800;8.596;2022-12-18T18:59:44;69.25;;;40.80;;
36303;SDS011;22335;49.800;8.596;2022-12-18T19:06:32;65.65;;;39.10;;
36303;SDS011;22335;49.800;8.596;2022-12-18T19:13:19;63.42;;;38.50;;
36303;SDS011;22335;49.800;8.596;2022-12-18T19:20:07;67.40;;;39.53;;
36303;SDS011;22335;49.800;8.596;2022-12-18T19:26:56;62.67;;;37.60;;
36303;SDS011;22335;49.800;8.596;2022-12-18T19:33:42;66.20;;;37.10;;
36303;SDS011;22335;49.800;8.596;2022-12-18T19:40:29;64.53;;;37.72;;
36303;SDS011;22335;49.800;8.596;2022-12-18T19:47:17;72.20;;;43.65;;
36303;SDS011;22335;49.800;8.596;2022-12-18T19:54:03;68.93;;;42.65;;
36303;SDS011;22335;49.800;8.596;2022-12-18T20:00:55;64.10;;;41.83;;
36303;SDS011;22335;49.800;8.596;2022-12-18T20:07:43;70.38;;;42.28;;
36303;SDS011;22335;49.800;8.596;2022-12-18T20:14:28;69.22;;;44.20;;
36303;SDS011;22335;49.800;8.596;2022-12-18T20:21:14;67.50;;;43.03;;
36303;SDS011;22335;49.800;8.596;2022-12-18T20:28:02;74.20;;;43.03;;
36303;SDS011;22335;49.800;8.596;2022-12-18T20:34:47;70.50;;;42.90;;
36303;SDS011;22335;49.800;8.596;2022-12-18T20:41:33;65.70;;;42.15;;
36303;SDS011;22335;49.800;8.596;2022-12-18T20:48:22;64.88;;;39.72;;
36303;SDS011;22335;49.800;8.596;2022-12-18T20:55:08;64.28;;;39.70;;
36303;SDS011;22335;49.800;8.596;2022-12-18T21:01:53;68.30;;;42.73;;
36303;SDS011;22335;49.800;8.596;2022-12-18T21:08:42;76.38;;;45.70;;
36303;SDS011;22335;49.800;8.596;2022-12-18T21:15:27;80.97;;;47.90;;
36303;SDS011;22335;49.800;8.596;2022-12-18T21:22:13;86.53;;;50.70;;
36303;SDS011;22335;49.800;8.596;2022-12-18T21:29:02;75.45;;;47.22;;
36303;SDS011;22335;49.800;8.596;2022-12-18T21:35:51;78.53;;;49.15;;
36303;SDS011;22335;49.800;8.596;2022-12-18T21:42:36;87.68;;;53.88;;
36303;SDS011;22335;49.800;8.596;2022-12-18T21:49:36;83.93;;;51.13;;
36303;SDS011;22335;49.800;8.596;2022-12-18T21:56:24;83.78;;;50.25;;
36303;SDS011;22335;49.800;8.596;2022-12-18T22:03:27;79.85;;;48.45;;
36303;SDS011;22335;49.800;8.596;2022-12-18T22:10:15;77.70;;;47.47;;
36303;SDS011;22335;49.800;8.596;2022-12-18T22:17:01;73.68;;;45.83;;
36303;SDS011;22335;49.800;8.596;2022-12-18T22:23:50;79.00;;;46.60;;
36303;SDS011;22335;49.800;8.596;2022-12-18T22:30:39;74.32;;;43.53;;
36303;SDS011;22335;49.800;8.596;2022-12-18T22:37:25;69.18;;;44.50;;
36303;SDS011;22335;49.800;8.596;2022-12-18T22:44:11;75.55;;;43.88;;
36303;SDS011;22335;49.800;8.596;2022-12-18T22:51:01;71.82;;;42.22;;
36303;SDS011;22335;49.800;8.596;2022-12-18T22:57:46;73.88;;;41.17;;
36303;SDS011;22335;49.800;8.596;2022-12-18T23:04:35;67.90;;;40.63;;
36303;SDS011;22335;49.800;8.596;2022-12-18T23:11:23;72.00;;;40.10;;
36303;SDS011;22335;49.800;8.596;2022-12-18T23:18:10;68.75;;;39.80;;
36303;SDS011;22335;49.800;8.596;2022-12-18T23:24:55;74.97;;;40.95;;
36303;SDS011;22335;49.800;8.596;2022-12-18T23:31:44;76.63;;;40.30;;
36303;SDS011;22335;49.800;8.596;2022-12-18T23:38:30;74.25;;;40.30;;
36303;SDS011;22335;49.800;8.596;2022-12-18T23:52:05;68.95;;;38.75;;
36303;SDS011;22335;49.800;8.596;2022-12-18T23:58:51;64.70;;;37.70;;
